Terminal Aerodrome Forecast
Issued by NWS Wilmington, NC

Home | Current Version | Previous Version | Text Only | Print | Product List | Glossary On
Versions: 1 2 3 4 5 6 7 8 9 10 11 12 13 14 15 16 17 18 19 20 21 22
425
FTUS42 KILM 091207 AAA
TAFILM
TAF AMD
KILM 091207Z 0912/1012 26012KT P6SM BKN040
     FM091400 26014G24KT P6SM SCT050 SCT120
     FM100100 25011G18KT P6SM BKN120
     FM100700 26009KT P6SM SKC=

USA.gov is the U.S. government's official web portal to all federal, state and local government web resources and services.